This is the latest recevied weather packets stored in our database for station/object KN6KS. If no packets are shown the sender has not sent any weather packets the latest 1 day(s).
| Time | Temp. | Humidity | Pressure | Rain* | Wind** | Luminosity | Snow |
|---|---|---|---|---|---|---|---|
| 1778080492 | 15.56° C | 54% | 1017.1 hPa | 0 mm | - | 252 W/m² | - |
| 1778079885 | 15° C | 55% | 1017.1 hPa | 0 mm | - | 251 W/m² | - |
| 1778078068 | 13.89° C | 62% | 1016.8 hPa | 0 mm | - | 140 W/m² | - |
| 1778077766 | 13.89° C | 62% | 1017 hPa | 0 mm | - | 134 W/m² | - |
| 1778077464 | 13.89° C | 63% | 1016.8 hPa | 0 mm | - | 121 W/m² | - |
| 1778076254 | 11.67° C | 68% | 1016.8 hPa | 0 mm | - | 52 W/m² | - |
| 1778074434 | 10.56° C | 71% | 1016.4 hPa | 0 mm | - | 27 W/m² | - |
| 1778073828 | 10° C | 72% | 1016.2 hPa | 0 mm | - | 19 W/m² | - |
| 1778073222 | 10° C | 72% | 1016 hPa | 0 mm | - | 11 W/m² | - |
| 1778072012 | 10° C | 73% | 1016 hPa | 0 mm | - | 0 W/m² | - |
| 1778071710 | 10° C | 74% | 1016.3 hPa | 0 mm | - | 0 W/m² | - |
| 1778067475 | 10° C | 71% | 1015.7 hPa | 0 mm | - | 0 W/m² | - |
| 1778066868 | 11.11° C | 68% | 1015.7 hPa | 0 mm | - | 0 W/m² | - |
| 1778066566 | 11.11° C | 67% | 1015.7 hPa | 0 mm | - | 0 W/m² | - |
| 1778066263 | 11.67° C | 66% | 1015.8 hPa | 0 mm | - | 0 W/m² | - |
| 1778065052 | 11.67° C | 66% | 1015.8 hPa | 0 mm | - | 0 W/m² | - |
| 1778064749 | 11.67° C | 66% | 1015.6 hPa | 0 mm | - | 0 W/m² | - |
| 1778064447 | 11.67° C | 66% | 1015.6 hPa | 0 mm | - | 0 W/m² | - |
| 1778063538 | 11.67° C | 66% | 1015.4 hPa | 0 mm | - | 0 W/m² | - |
| 1778063236 | 11.67° C | 65% | 1015.5 hPa | 0 mm | - | 0 W/m² | - |
| 1778062934 | 11.67° C | 66% | 1015.6 hPa | 0 mm | - | 0 W/m² | - |
| 1778062327 | 11.67° C | 66% | 1015.6 hPa | 0 mm | - | 0 W/m² | - |
| 1778061723 | 11.67° C | 66% | 1015.6 hPa | 0 mm | - | 0 W/m² | - |
| 1778061421 | 11.67° C | 66% | 1015.4 hPa | 0 mm | - | 0 W/m² | - |
| 1778060815 | 11.67° C | 67% | 1015.4 hPa | 0 mm | - | 0 W/m² | - |
* Rain latest hour (hover to see other rain measurements)
** Current wind speed in m/s (hover to see current wind gust speed)